sensor_id;sensor_type;location;lat;lon;timestamp;pressure;altitude;pressure_sealevel;temperature;humidity
8280;BME280;8335;42.646;23.380;2023-04-19T00:01:10;144205.75;;;10.61;98.71
8280;BME280;8335;42.646;23.380;2023-04-19T00:03:38;144214.44;;;10.64;98.58
8280;BME280;8335;42.646;23.380;2023-04-19T00:06:05;144216.97;;;10.65;98.67
8280;BME280;8335;42.646;23.380;2023-04-19T00:08:32;144225.66;;;10.69;98.01
8280;BME280;8335;42.646;23.380;2023-04-19T00:10:59;144223.16;;;10.68;98.31
8280;BME280;8335;42.646;23.380;2023-04-19T00:13:26;144211.97;;;10.63;98.71
8280;BME280;8335;42.646;23.380;2023-04-19T00:15:52;144219.44;;;10.66;98.60
8280;BME280;8335;42.646;23.380;2023-04-19T00:18:19;144224.41;;;10.68;98.63
8280;BME280;8335;42.646;23.380;2023-04-19T00:20:47;144214.44;;;10.64;98.46
8280;BME280;8335;42.646;23.380;2023-04-19T00:23:14;144210.72;;;10.63;98.91
8280;BME280;8335;42.646;23.380;2023-04-19T00:25:41;144168.47;;;10.45;98.46
8280;BME280;8335;42.646;23.380;2023-04-19T00:28:08;144203.28;;;10.60;98.62
8280;BME280;8335;42.646;23.380;2023-04-19T00:30:34;144198.31;;;10.58;98.84
8280;BME280;8335;42.646;23.380;2023-04-19T00:33:01;144198.31;;;10.58;99.35
8280;BME280;8335;42.646;23.380;2023-04-19T00:35:28;144204.53;;;10.60;99.26
8280;BME280;8335;42.646;23.380;2023-04-19T00:37:56;144204.53;;;10.60;99.50
8280;BME280;8335;42.646;23.380;2023-04-19T00:40:23;144204.53;;;10.60;99.16
8280;BME280;8335;42.646;23.380;2023-04-19T00:42:49;144209.47;;;10.62;99.14
8280;BME280;8335;42.646;23.380;2023-04-19T00:45:16;144205.75;;;10.61;98.86
8280;BME280;8335;42.646;23.380;2023-04-19T00:47:43;144207.00;;;10.61;98.90
8280;BME280;8335;42.646;23.380;2023-04-19T00:50:11;144210.72;;;10.63;98.42
8280;BME280;8335;42.646;23.380;2023-04-19T00:52:38;144207.00;;;10.61;98.38
8280;BME280;8335;42.646;23.380;2023-04-19T00:55:07;144211.97;;;10.63;98.52
8280;BME280;8335;42.646;23.380;2023-04-19T00:57:34;144207.00;;;10.61;98.18
8280;BME280;8335;42.646;23.380;2023-04-19T01:00:03;144194.56;;;10.56;98.11
8280;BME280;8335;42.646;23.380;2023-04-19T01:02:33;144178.41;;;10.50;97.67
8280;BME280;8335;42.646;23.380;2023-04-19T01:05:00;144194.56;;;10.56;98.21
8280;BME280;8335;42.646;23.380;2023-04-19T01:07:27;144199.56;;;10.58;97.73
8280;BME280;8335;42.646;23.380;2023-04-19T01:09:54;144188.34;;;10.54;97.73
8280;BME280;8335;42.646;23.380;2023-04-19T01:12:22;144180.91;;;10.51;98.17
8280;BME280;8335;42.646;23.380;2023-04-19T01:14:49;144178.41;;;10.50;98.10
8280;BME280;8335;42.646;23.380;2023-04-19T01:17:16;144184.66;;;10.52;98.02
8280;BME280;8335;42.646;23.380;2023-04-19T01:19:43;144142.34;;;10.35;98.24
8280;BME280;8335;42.646;23.380;2023-04-19T01:22:15;144158.50;;;10.41;97.80
8280;BME280;8335;42.646;23.380;2023-04-19T01:24:42;144169.72;;;10.46;98.00
8280;BME280;8335;42.646;23.380;2023-04-19T01:27:09;144175.91;;;10.48;98.53
8280;BME280;8335;42.646;23.380;2023-04-19T01:29:38;144177.16;;;10.49;98.23
8280;BME280;8335;42.646;23.380;2023-04-19T01:32:05;144180.91;;;10.51;98.13
8280;BME280;8335;42.646;23.380;2023-04-19T01:34:32;144180.91;;;10.51;98.11
8280;BME280;8335;42.646;23.380;2023-04-19T01:36:58;144184.66;;;10.52;97.84
8280;BME280;8335;42.646;23.380;2023-04-19T01:39:27;144162.28;;;10.43;98.28
8280;BME280;8335;42.646;23.380;2023-04-19T01:41:53;144170.97;;;10.46;97.95
8280;BME280;8335;42.646;23.380;2023-04-19T01:44:20;144174.69;;;10.48;98.03
8280;BME280;8335;42.646;23.380;2023-04-19T01:46:47;144168.47;;;10.45;97.94
8280;BME280;8335;42.646;23.380;2023-04-19T01:49:13;144177.16;;;10.49;98.34
8280;BME280;8335;42.646;23.380;2023-04-19T01:51:40;144175.91;;;10.48;98.28
8280;BME280;8335;42.646;23.380;2023-04-19T01:54:07;144174.69;;;10.48;97.65
8280;BME280;8335;42.646;23.380;2023-04-19T01:56:35;144175.91;;;10.48;97.86
8280;BME280;8335;42.646;23.380;2023-04-19T01:59:02;144157.28;;;10.41;98.00
8280;BME280;8335;42.646;23.380;2023-04-19T02:01:29;144154.78;;;10.40;98.59
8280;BME280;8335;42.646;23.380;2023-04-19T02:03:56;144124.94;;;10.28;98.69
8280;BME280;8335;42.646;23.380;2023-04-19T02:06:23;144122.47;;;10.27;99.26
8280;BME280;8335;42.646;23.380;2023-04-19T02:08:51;144108.75;;;10.21;99.54
8280;BME280;8335;42.646;23.380;2023-04-19T02:11:18;144118.75;;;10.25;99.76
8280;BME280;8335;42.646;23.380;2023-04-19T02:13:46;144118.75;;;10.25;100.00
8280;BME280;8335;42.646;23.380;2023-04-19T02:16:12;144108.75;;;10.21;100.00
8280;BME280;8335;42.646;23.380;2023-04-19T02:18:39;144076.47;;;10.08;100.00
8280;BME280;8335;42.646;23.380;2023-04-19T02:21:07;144083.91;;;10.11;100.00
8280;BME280;8335;42.646;23.380;2023-04-19T02:23:34;144087.63;;;10.12;100.00
8280;BME280;8335;42.646;23.380;2023-04-19T02:26:00;144070.22;;;10.05;100.00
8280;BME280;8335;42.646;23.380;2023-04-19T02:28:28;144071.47;;;10.06;100.00
8280;BME280;8335;42.646;23.380;2023-04-19T02:30:56;144059.09;;;10.01;100.00
8280;BME280;8335;42.646;23.380;2023-04-19T02:33:24;144028.00;;;9.88;100.00
8280;BME280;8335;42.646;23.380;2023-04-19T02:35:53;144028.00;;;9.88;100.00
8280;BME280;8335;42.646;23.380;2023-04-19T02:38:19;144006.91;;;9.79;100.00
8280;BME280;8335;42.646;23.380;2023-04-19T02:40:46;144015.56;;;9.83;100.00
8280;BME280;8335;42.646;23.380;2023-04-19T02:43:13;144018.06;;;9.84;100.00
8280;BME280;8335;42.646;23.380;2023-04-19T02:45:40;144025.53;;;9.87;100.00
8280;BME280;8335;42.646;23.380;2023-04-19T02:48:08;144031.72;;;9.89;100.00
8280;BME280;8335;42.646;23.380;2023-04-19T02:50:36;144031.72;;;9.89;100.00
8280;BME280;8335;42.646;23.380;2023-04-19T02:53:03;144034.19;;;9.90;100.00
8280;BME280;8335;42.646;23.380;2023-04-19T02:55:29;144034.19;;;9.90;100.00
8280;BME280;8335;42.646;23.380;2023-04-19T02:57:56;144041.69;;;9.93;100.00
8280;BME280;8335;42.646;23.380;2023-04-19T03:00:23;144039.16;;;9.92;100.00
8280;BME280;8335;42.646;23.380;2023-04-19T03:02:49;144015.56;;;9.83;100.00
8280;BME280;8335;42.646;23.380;2023-04-19T03:05:17;143996.94;;;9.75;100.00
8280;BME280;8335;42.646;23.380;2023-04-19T03:07:44;143982.03;;;9.69;100.00
8280;BME280;8335;42.646;23.380;2023-04-19T03:10:11;143989.50;;;9.72;100.00
8280;BME280;8335;42.646;23.380;2023-04-19T03:12:38;143985.75;;;9.71;100.00
8280;BME280;8335;42.646;23.380;2023-04-19T03:15:06;143980.78;;;9.69;100.00
8280;BME280;8335;42.646;23.380;2023-04-19T03:17:33;143974.59;;;9.66;100.00
8280;BME280;8335;42.646;23.380;2023-04-19T03:20:00;143965.88;;;9.62;100.00
8280;BME280;8335;42.646;23.380;2023-04-19T03:22:28;143968.34;;;9.63;100.00
8280;BME280;8335;42.646;23.380;2023-04-19T03:24:55;143949.72;;;9.56;100.00
8280;BME280;8335;42.646;23.380;2023-04-19T03:27:21;143934.81;;;9.50;100.00
8280;BME280;8335;42.646;23.380;2023-04-19T03:29:48;143932.34;;;9.49;100.00
8280;BME280;8335;42.646;23.380;2023-04-19T03:32:15;143939.81;;;9.52;100.00
8280;BME280;8335;42.646;23.380;2023-04-19T03:34:41;143913.72;;;9.41;100.00
8280;BME280;8335;42.646;23.380;2023-04-19T03:37:08;143893.84;;;9.33;100.00
8280;BME280;8335;42.646;23.380;2023-04-19T03:39:36;143876.47;;;9.26;100.00
8280;BME280;8335;42.646;23.380;2023-04-19T03:42:03;143860.31;;;9.19;100.00
8280;BME280;8335;42.646;23.380;2023-04-19T03:44:30;143847.88;;;9.14;100.00
8280;BME280;8335;42.646;23.380;2023-04-19T03:46:57;143836.75;;;9.09;100.00
8280;BME280;8335;42.646;23.380;2023-04-19T03:49:24;143831.78;;;9.07;100.00
8280;BME280;8335;42.646;23.380;2023-04-19T03:51:51;143801.97;;;8.95;100.00
8280;BME280;8335;42.646;23.380;2023-04-19T03:54:17;143795.75;;;8.93;100.00
8280;BME280;8335;42.646;23.380;2023-04-19T03:56:46;143785.84;;;8.89;100.00
8280;BME280;8335;42.646;23.380;2023-04-19T03:59:13;143783.34;;;8.88;100.00
8280;BME280;8335;42.646;23.380;2023-04-19T04:01:39;143778.34;;;8.86;100.00
8280;BME280;8335;42.646;23.380;2023-04-19T04:04:07;143773.41;;;8.83;100.00
8280;BME280;8335;42.646;23.380;2023-04-19T04:06:34;143788.31;;;8.90;100.00
8280;BME280;8335;42.646;23.380;2023-04-19T04:09:00;143789.53;;;8.90;100.00
8280;BME280;8335;42.646;23.380;2023-04-19T04:11:28;143794.50;;;8.92;100.00
8280;BME280;8335;42.646;23.380;2023-04-19T04:13:56;143798.25;;;8.94;100.00
8280;BME280;8335;42.646;23.380;2023-04-19T04:16:23;143799.50;;;8.94;100.00
8280;BME280;8335;42.646;23.380;2023-04-19T04:18:50;143801.97;;;8.95;100.00
8280;BME280;8335;42.646;23.380;2023-04-19T04:21:16;143784.59;;;8.88;100.00
8280;BME280;8335;42.646;23.380;2023-04-19T04:23:43;143763.50;;;8.79;100.00
8280;BME280;8335;42.646;23.380;2023-04-19T04:26:11;143778.34;;;8.86;100.00
8280;BME280;8335;42.646;23.380;2023-04-19T04:28:38;143813.13;;;9.00;100.00
8280;BME280;8335;42.646;23.380;2023-04-19T04:31:06;143762.25;;;8.79;100.00
8280;BME280;8335;42.646;23.380;2023-04-19T04:33:34;143856.59;;;9.18;100.00
8280;BME280;8335;42.646;23.380;2023-04-19T04:36:01;143849.16;;;9.15;100.00
8280;BME280;8335;42.646;23.380;2023-04-19T04:38:29;143852.88;;;9.16;100.00
8280;BME280;8335;42.646;23.380;2023-04-19T04:40:56;143860.31;;;9.19;100.00
8280;BME280;8335;42.646;23.380;2023-04-19T04:43:24;143855.34;;;9.17;100.00
8280;BME280;8335;42.646;23.380;2023-04-19T04:45:54;143849.16;;;9.15;100.00
8280;BME280;8335;42.646;23.380;2023-04-19T04:48:23;143860.31;;;9.19;100.00
8280;BME280;8335;42.646;23.380;2023-04-19T04:50:50;143867.78;;;9.22;100.00
8280;BME280;8335;42.646;23.380;2023-04-19T04:53:17;143880.19;;;9.27;100.00
8280;BME280;8335;42.646;23.380;2023-04-19T04:55:44;143883.94;;;9.29;100.00
8280;BME280;8335;42.646;23.380;2023-04-19T04:58:11;143897.56;;;9.34;100.00
8280;BME280;8335;42.646;23.380;2023-04-19T05:00:38;143901.31;;;9.36;100.00
8280;BME280;8335;42.646;23.380;2023-04-19T05:03:04;143887.66;;;9.30;100.00
8280;BME280;8335;42.646;23.380;2023-04-19T05:05:33;143921.19;;;9.44;100.00
8280;BME280;8335;42.646;23.380;2023-04-19T05:07:59;143936.09;;;9.50;100.00
8280;BME280;8335;42.646;23.380;2023-04-19T05:10:26;143947.25;;;9.55;100.00
8280;BME280;8335;42.646;23.380;2023-04-19T05:12:53;143962.16;;;9.61;100.00
8280;BME280;8335;42.646;23.380;2023-04-19T05:15:20;143986.97;;;9.71;100.00
8280;BME280;8335;42.646;23.380;2023-04-19T05:17:46;144003.13;;;9.78;100.00
8280;BME280;8335;42.646;23.380;2023-04-19T05:20:13;143998.19;;;9.76;100.00
8280;BME280;8335;42.646;23.380;2023-04-19T05:22:41;144005.66;;;9.79;100.00
8280;BME280;8335;42.646;23.380;2023-04-19T05:25:09;144004.38;;;9.78;100.00
8280;BME280;8335;42.646;23.380;2023-04-19T05:27:36;144004.38;;;9.78;100.00
8280;BME280;8335;42.646;23.380;2023-04-19T05:30:04;144000.66;;;9.77;100.00
8280;BME280;8335;42.646;23.380;2023-04-19T05:32:32;144025.53;;;9.87;100.00
8280;BME280;8335;42.646;23.380;2023-04-19T05:34:59;144055.31;;;9.99;100.00
8280;BME280;8335;42.646;23.380;2023-04-19T05:37:25;144056.56;;;10.00;100.00
8280;BME280;8335;42.646;23.380;2023-04-19T05:39:53;144065.28;;;10.03;100.00
8280;BME280;8335;42.646;23.380;2023-04-19T05:42:20;144069.00;;;10.05;100.00
8280;BME280;8335;42.646;23.380;2023-04-19T05:44:47;144086.38;;;10.12;100.00
8280;BME280;8335;42.646;23.380;2023-04-19T05:47:13;144129.97;;;10.30;100.00
8280;BME280;8335;42.646;23.380;2023-04-19T05:49:41;144143.59;;;10.35;100.00
8280;BME280;8335;42.646;23.380;2023-04-19T05:52:08;144169.72;;;10.46;100.00
8280;BME280;8335;42.646;23.380;2023-04-19T05:54:35;144177.16;;;10.49;100.00
8280;BME280;8335;42.646;23.380;2023-04-19T05:57:03;144202.03;;;10.59;100.00
8280;BME280;8335;42.646;23.380;2023-04-19T05:59:30;144214.44;;;10.64;100.00
8280;BME280;8335;42.646;23.380;2023-04-19T06:01:57;144256.75;;;10.82;99.04
8280;BME280;8335;42.646;23.380;2023-04-19T06:04:23;144286.59;;;10.94;97.90
8280;BME280;8335;42.646;23.380;2023-04-19T06:06:50;144306.47;;;11.02;97.27
8280;BME280;8335;42.646;23.380;2023-04-19T06:09:17;144317.66;;;11.07;97.50
8280;BME280;8335;42.646;23.380;2023-04-19T06:11:44;144317.66;;;11.07;97.53
8280;BME280;8335;42.646;23.380;2023-04-19T06:14:13;144341.31;;;11.16;96.06
8280;BME280;8335;42.646;23.380;2023-04-19T06:16:41;144366.16;;;11.26;96.25
8280;BME280;8335;42.646;23.380;2023-04-19T06:19:08;144408.47;;;11.44;95.26
8280;BME280;8335;42.646;23.380;2023-04-19T06:21:35;144435.81;;;11.55;94.65
8280;BME280;8335;42.646;23.380;2023-04-19T06:24:02;144466.94;;;11.68;93.54
8280;BME280;8335;42.646;23.380;2023-04-19T06:26:28;144470.66;;;11.69;93.29
8280;BME280;8335;42.646;23.380;2023-04-19T06:28:55;144458.19;;;11.64;92.88
8280;BME280;8335;42.646;23.380;2023-04-19T06:31:23;144463.22;;;11.66;92.69
8280;BME280;8335;42.646;23.380;2023-04-19T06:33:50;144476.91;;;11.72;92.68
8280;BME280;8335;42.646;23.380;2023-04-19T06:36:16;144485.59;;;11.75;92.40
8280;BME280;8335;42.646;23.380;2023-04-19T06:38:43;144498.09;;;11.80;92.56
8280;BME280;8335;42.646;23.380;2023-04-19T06:41:11;144518.00;;;11.89;92.65
8280;BME280;8335;42.646;23.380;2023-04-19T06:43:37;144564.06;;;12.07;92.17
8280;BME280;8335;42.646;23.380;2023-04-19T06:46:06;144610.09;;;12.26;90.43
8280;BME280;8335;42.646;23.380;2023-04-19T06:48:34;144653.69;;;12.44;90.27
8280;BME280;8335;42.646;23.380;2023-04-19T06:51:01;144683.53;;;12.56;88.66
8280;BME280;8335;42.646;23.380;2023-04-19T06:53:28;144757.03;;;12.86;88.45
8280;BME280;8335;42.646;23.380;2023-04-19T06:55:57;144848.00;;;13.24;85.59
8280;BME280;8335;42.646;23.380;2023-04-19T06:58:25;144932.75;;;13.58;84.41
8280;BME280;8335;42.646;23.380;2023-04-19T07:00:51;144956.41;;;13.68;83.12
8280;BME280;8335;42.646;23.380;2023-04-19T07:03:18;144966.38;;;13.72;81.98
8280;BME280;8335;42.646;23.380;2023-04-19T07:05:46;145016.19;;;13.92;81.39
8280;BME280;8335;42.646;23.380;2023-04-19T07:08:13;144961.38;;;13.70;80.51
8280;BME280;8335;42.646;23.380;2023-04-19T07:10:40;145100.97;;;14.27;80.26
8280;BME280;8335;42.646;23.380;2023-04-19T07:13:08;145160.91;;;14.51;78.51
8280;BME280;8335;42.646;23.380;2023-04-19T07:15:36;145199.56;;;14.67;77.57
8280;BME280;8335;42.646;23.380;2023-04-19T07:18:02;145178.38;;;14.58;75.70
8280;BME280;8335;42.646;23.380;2023-04-19T07:20:29;145192.03;;;14.64;75.97
8280;BME280;8335;42.646;23.380;2023-04-19T07:22:58;145219.50;;;14.75;75.25
8280;BME280;8335;42.646;23.380;2023-04-19T07:25:25;145340.50;;;15.25;74.05
8280;BME280;8335;42.646;23.380;2023-04-19T07:27:52;145411.63;;;15.54;72.88
8280;BME280;8335;42.646;23.380;2023-04-19T07:30:19;145491.56;;;15.86;71.14
8280;BME280;8335;42.646;23.380;2023-04-19T07:32:46;145504.03;;;15.91;70.23
8280;BME280;8335;42.646;23.380;2023-04-19T07:35:13;145482.81;;;15.83;70.02
8280;BME280;8335;42.646;23.380;2023-04-19T07:37:39;145512.78;;;15.95;69.43
8280;BME280;8335;42.646;23.380;2023-04-19T07:40:08;145471.56;;;15.78;69.87
8280;BME280;8335;42.646;23.380;2023-04-19T07:42:36;145479.09;;;15.81;70.23
8280;BME280;8335;42.646;23.380;2023-04-19T07:45:03;145521.50;;;15.99;68.68
8280;BME280;8335;42.646;23.380;2023-04-19T07:47:30;145519.00;;;15.98;68.86
8280;BME280;8335;42.646;23.380;2023-04-19T07:49:56;145461.59;;;15.74;69.98
8280;BME280;8335;42.646;23.380;2023-04-19T07:52:23;145420.38;;;15.57;70.00
8280;BME280;8335;42.646;23.380;2023-04-19T07:54:50;145474.09;;;15.79;70.06
8280;BME280;8335;42.646;23.380;2023-04-19T07:57:18;145456.63;;;15.72;69.64
8280;BME280;8335;42.646;23.380;2023-04-19T07:59:45;145480.31;;;15.82;69.83
8280;BME280;8335;42.646;23.380;2023-04-19T08:02:12;145435.38;;;15.63;70.67
8280;BME280;8335;42.646;23.380;2023-04-19T08:04:40;145386.69;;;15.44;70.82
8280;BME280;8335;42.646;23.380;2023-04-19T08:07:07;145374.19;;;15.38;71.48
8280;BME280;8335;42.646;23.380;2023-04-19T08:09:34;145446.63;;;15.68;71.29
8280;BME280;8335;42.646;23.380;2023-04-19T08:12:02;145505.28;;;15.92;69.89
8280;BME280;8335;42.646;23.380;2023-04-19T08:14:30;145494.06;;;15.87;69.01
8280;BME280;8335;42.646;23.380;2023-04-19T08:16:57;145491.56;;;15.86;69.88
8280;BME280;8335;42.646;23.380;2023-04-19T08:19:23;145467.84;;;15.77;70.54
8280;BME280;8335;42.646;23.380;2023-04-19T08:21:50;145417.84;;;15.56;70.76
8280;BME280;8335;42.646;23.380;2023-04-19T08:24:17;145444.13;;;15.67;70.06
8280;BME280;8335;42.646;23.380;2023-04-19T08:26:44;145466.59;;;15.76;69.80
8280;BME280;8335;42.646;23.380;2023-04-19T08:29:18;145459.13;;;15.73;71.10
8280;BME280;8335;42.646;23.380;2023-04-19T08:31:46;145445.38;;;15.67;70.26
8280;BME280;8335;42.646;23.380;2023-04-19T08:34:13;145392.91;;;15.46;70.46
8280;BME280;8335;42.646;23.380;2023-04-19T08:36:39;145415.38;;;15.55;71.71
8280;BME280;8335;42.646;23.380;2023-04-19T08:39:06;145475.34;;;15.80;70.17
8280;BME280;8335;42.646;23.380;2023-04-19T08:41:33;145434.13;;;15.63;69.12
8280;BME280;8335;42.646;23.380;2023-04-19T08:44:02;145470.31;;;15.78;69.54
8280;BME280;8335;42.646;23.380;2023-04-19T08:46:30;145444.13;;;15.67;69.28
8280;BME280;8335;42.646;23.380;2023-04-19T08:48:58;145390.44;;;15.45;70.42
8280;BME280;8335;42.646;23.380;2023-04-19T08:51:26;145389.19;;;15.45;70.77
8280;BME280;8335;42.646;23.380;2023-04-19T08:53:55;145331.75;;;15.21;70.48
8280;BME280;8335;42.646;23.380;2023-04-19T08:56:22;145381.66;;;15.41;71.24
8280;BME280;8335;42.646;23.380;2023-04-19T08:58:49;145380.44;;;15.41;71.00
8280;BME280;8335;42.646;23.380;2023-04-19T09:01:16;145422.88;;;15.58;71.32
8280;BME280;8335;42.646;23.380;2023-04-19T09:03:43;145464.09;;;15.75;70.29
8280;BME280;8335;42.646;23.380;2023-04-19T09:06:12;145462.84;;;15.75;70.36
8280;BME280;8335;42.646;23.380;2023-04-19T09:08:39;145479.09;;;15.81;69.90
8280;BME280;8335;42.646;23.380;2023-04-19T09:11:06;145538.97;;;16.06;68.44
8280;BME280;8335;42.646;23.380;2023-04-19T09:13:33;145552.72;;;16.11;68.57
8280;BME280;8335;42.646;23.380;2023-04-19T09:16:01;145529.03;;;16.02;68.16
8280;BME280;8335;42.646;23.380;2023-04-19T09:18:29;145500.28;;;15.90;68.60
8280;BME280;8335;42.646;23.380;2023-04-19T09:20:56;145520.25;;;15.98;68.01
8280;BME280;8335;42.646;23.380;2023-04-19T09:23:25;145510.31;;;15.94;68.69
8280;BME280;8335;42.646;23.380;2023-04-19T09:25:54;145557.72;;;16.13;67.82
8280;BME280;8335;42.646;23.380;2023-04-19T09:28:22;145571.44;;;16.19;67.46
8280;BME280;8335;42.646;23.380;2023-04-19T09:30:49;145652.63;;;16.52;66.63
8280;BME280;8335;42.646;23.380;2023-04-19T09:33:31;145736.38;;;16.86;64.16
8280;BME280;8335;42.646;23.380;2023-04-19T09:35:59;145721.38;;;16.80;62.64
8280;BME280;8335;42.646;23.380;2023-04-19T09:38:27;145733.84;;;16.85;62.23
8280;BME280;8335;42.646;23.380;2023-04-19T09:41:05;145775.09;;;17.02;62.06
8280;BME280;8335;42.646;23.380;2023-04-19T09:43:33;145791.34;;;17.09;62.58
8280;BME280;8335;42.646;23.380;2023-04-19T09:46:00;145827.59;;;17.23;61.91
8280;BME280;8335;42.646;23.380;2023-04-19T09:48:27;145977.59;;;17.84;61.92
8280;BME280;8335;42.646;23.380;2023-04-19T09:50:55;146142.69;;;18.52;59.59
8280;BME280;8335;42.646;23.380;2023-04-19T09:53:22;146321.63;;;19.24;56.58
8280;BME280;8335;42.646;23.380;2023-04-19T09:55:51;146470.59;;;19.85;54.75
8280;BME280;8335;42.646;23.380;2023-04-19T09:58:19;146555.75;;;20.20;52.54
8280;BME280;8335;42.646;23.380;2023-04-19T10:00:47;146625.94;;;20.48;51.49
8280;BME280;8335;42.646;23.380;2023-04-19T10:03:17;146659.75;;;20.62;50.33
8280;BME280;8335;42.646;23.380;2023-04-19T10:05:44;146737.44;;;20.94;49.44
8280;BME280;8335;42.646;23.380;2023-04-19T10:08:12;146767.50;;;21.06;48.71
8280;BME280;8335;42.646;23.380;2023-04-19T10:10:39;146910.41;;;21.64;48.11
8280;BME280;8335;42.646;23.380;2023-04-19T10:13:10;146919.22;;;21.67;46.29
8280;BME280;8335;42.646;23.380;2023-04-19T10:15:37;147077.25;;;22.32;46.55
8280;BME280;8335;42.646;23.380;2023-04-19T10:18:05;147079.75;;;22.33;45.44
8280;BME280;8335;42.646;23.380;2023-04-19T10:20:38;147097.31;;;22.40;43.83
8280;BME280;8335;42.646;23.380;2023-04-19T10:23:07;147118.63;;;22.48;44.93
8280;BME280;8335;42.646;23.380;2023-04-19T10:25:36;147081.00;;;22.33;43.74
8280;BME280;8335;42.646;23.380;2023-04-19T10:28:03;146946.75;;;21.79;44.33
8280;BME280;8335;42.646;23.380;2023-04-19T10:30:31;146998.16;;;21.99;45.05
8280;BME280;8335;42.646;23.380;2023-04-19T10:32:59;147042.13;;;22.17;44.15
8280;BME280;8335;42.646;23.380;2023-04-19T10:35:33;147052.13;;;22.21;44.68
8280;BME280;8335;42.646;23.380;2023-04-19T10:38:04;147049.63;;;22.20;44.77
8280;BME280;8335;42.646;23.380;2023-04-19T10:40:55;147030.81;;;22.13;45.29
8280;BME280;8335;42.646;23.380;2023-04-19T10:43:25;147047.13;;;22.19;44.07
8280;BME280;8335;42.646;23.380;2023-04-19T10:45:54;146951.81;;;21.81;45.25
8280;BME280;8335;42.646;23.380;2023-04-19T10:48:34;146831.47;;;21.32;45.90
8280;BME280;8335;42.646;23.380;2023-04-19T10:51:04;146766.25;;;21.05;46.56
8280;BME280;8335;42.646;23.380;2023-04-19T10:53:49;146702.38;;;20.79;47.58
8280;BME280;8335;42.646;23.380;2023-04-19T10:56:18;146428.06;;;19.68;47.26
8280;BME280;8335;42.646;23.380;2023-04-19T10:59:13;146538.22;;;20.13;48.57
8280;BME280;8335;42.646;23.380;2023-04-19T11:01:50;146460.59;;;19.81;50.15
8280;BME280;8335;42.646;23.380;2023-04-19T11:04:19;146395.44;;;19.55;50.89
8280;BME280;8335;42.646;23.380;2023-04-19T11:07:02;146312.84;;;19.21;49.50
8280;BME280;8335;42.646;23.380;2023-04-19T11:09:31;146222.75;;;18.84;50.97
8280;BME280;8335;42.646;23.380;2023-04-19T11:12:01;146176.44;;;18.65;51.84
8280;BME280;8335;42.646;23.380;2023-04-19T11:14:34;146122.66;;;18.43;52.75
8280;BME280;8335;42.646;23.380;2023-04-19T11:17:12;146101.38;;;18.35;52.66
8280;BME280;8335;42.646;23.380;2023-04-19T11:19:41;145988.84;;;17.89;54.77
8280;BME280;8335;42.646;23.380;2023-04-19T11:22:08;145886.31;;;17.47;55.41
8280;BME280;8335;42.646;23.380;2023-04-19T11:24:35;145902.56;;;17.54;57.47
8280;BME280;8335;42.646;23.380;2023-04-19T11:27:06;145926.28;;;17.64;57.30
8280;BME280;8335;42.646;23.380;2023-04-19T11:29:33;145942.53;;;17.70;55.89
8280;BME280;8335;42.646;23.380;2023-04-19T11:32:00;145972.59;;;17.82;56.50
8280;BME280;8335;42.646;23.380;2023-04-19T11:34:28;145995.09;;;17.92;53.15
8280;BME280;8335;42.646;23.380;2023-04-19T11:36:55;145955.09;;;17.75;53.74
8280;BME280;8335;42.646;23.380;2023-04-19T11:39:21;145956.34;;;17.76;54.57
8280;BME280;8335;42.646;23.380;2023-04-19T11:41:48;145927.53;;;17.64;55.38
8280;BME280;8335;42.646;23.380;2023-04-19T11:44:16;145948.88;;;17.73;53.28
8280;BME280;8335;42.646;23.380;2023-04-19T11:46:57;145888.78;;;17.48;54.52
8280;BME280;8335;42.646;23.380;2023-04-19T11:49:26;145917.56;;;17.60;54.33
8280;BME280;8335;42.646;23.380;2023-04-19T11:51:59;145885.06;;;17.47;54.36
8280;BME280;8335;42.646;23.380;2023-04-19T11:54:27;145887.53;;;17.48;53.86
8280;BME280;8335;42.646;23.380;2023-04-19T11:57:01;145936.31;;;17.68;54.00
8280;BME280;8335;42.646;23.380;2023-04-19T11:59:29;145910.03;;;17.57;53.65
8280;BME280;8335;42.646;23.380;2023-04-19T12:02:04;145916.31;;;17.59;51.26
8280;BME280;8335;42.646;23.380;2023-04-19T12:04:31;145927.53;;;17.64;52.07
8280;BME280;8335;42.646;23.380;2023-04-19T12:07:00;145871.28;;;17.41;51.89
8280;BME280;8335;42.646;23.380;2023-04-19T12:09:28;145870.03;;;17.41;51.59
8280;BME280;8335;42.646;23.380;2023-04-19T12:11:54;145887.53;;;17.48;51.41
8280;BME280;8335;42.646;23.380;2023-04-19T12:14:22;145925.03;;;17.63;53.20
8280;BME280;8335;42.646;23.380;2023-04-19T12:17:09;145948.88;;;17.73;53.99
8280;BME280;8335;42.646;23.380;2023-04-19T12:19:42;145992.59;;;17.91;52.61
8280;BME280;8335;42.646;23.380;2023-04-19T12:22:12;146047.59;;;18.13;50.12
8280;BME280;8335;42.646;23.380;2023-04-19T12:24:40;146078.88;;;18.26;50.58
8280;BME280;8335;42.646;23.380;2023-04-19T12:27:07;146006.34;;;17.96;53.45
8280;BME280;8335;42.646;23.380;2023-04-19T12:29:34;145932.56;;;17.66;55.93
8280;BME280;8335;42.646;23.380;2023-04-19T12:32:01;145827.59;;;17.23;57.63
8280;BME280;8335;42.646;23.380;2023-04-19T12:34:29;145752.56;;;16.93;59.18
8280;BME280;8335;42.646;23.380;2023-04-19T12:36:55;145778.84;;;17.03;59.00
8280;BME280;8335;42.646;23.380;2023-04-19T12:39:24;145742.63;;;16.89;58.72
8280;BME280;8335;42.646;23.380;2023-04-19T12:41:50;145665.09;;;16.57;59.76
8280;BME280;8335;42.646;23.380;2023-04-19T12:44:17;145607.66;;;16.34;60.06
8280;BME280;8335;42.646;23.380;2023-04-19T12:46:44;145568.97;;;16.18;60.70
8280;BME280;8335;42.646;23.380;2023-04-19T12:49:11;145557.72;;;16.13;60.80
8280;BME280;8335;42.646;23.380;2023-04-19T12:51:38;145553.97;;;16.12;60.31
8280;BME280;8335;42.646;23.380;2023-04-19T12:54:06;145535.25;;;16.04;60.42
8280;BME280;8335;42.646;23.380;2023-04-19T12:56:34;145516.53;;;15.96;60.35
8280;BME280;8335;42.646;23.380;2023-04-19T12:59:01;145527.78;;;16.01;60.63
8280;BME280;8335;42.646;23.380;2023-04-19T13:01:28;145511.53;;;15.94;60.58
8280;BME280;8335;42.646;23.380;2023-04-19T13:03:55;145481.56;;;15.82;60.22